This is the latest recevied weather packets stored in our database for station/object W4MLN-3. If no packets are shown the sender has not sent any weather packets the latest 10 day(s).
| Time | Temp. | Humidity | Pressure | Rain* | Wind** | Luminosity | Snow |
|---|---|---|---|---|---|---|---|
| 1777982703 | 10° C | 78% | 1015.6 hPa | 0 mm | - | - | - |
| 1777982403 | 10° C | 78% | 1015.5 hPa | 0 mm | - | - | - |
| 1777982103 | 9.44° C | 79% | 1015.4 hPa | 0 mm | - | - | - |
| 1777981825 | 9.44° C | 80% | 1015.4 hPa | 0 mm | - | - | - |
| 1777981503 | 9.44° C | 80% | 1015.4 hPa | 0 mm | - | - | - |
| 1777981203 | 8.89° C | 79% | 1015.3 hPa | 0 mm | - | - | - |
| 1777980903 | 8.89° C | 79% | 1015.2 hPa | 0 mm | - | - | - |
| 1777980603 | 8.89° C | 79% | 1015.3 hPa | 0 mm | - | - | - |
| 1777980304 | 8.89° C | 78% | 1015.2 hPa | 0 mm | - | - | - |
| 1777980003 | 8.89° C | 78% | 1015 hPa | 0 mm | - | - | - |
| 1777979703 | 8.33° C | 79% | 1015.1 hPa | 0 mm | - | - | - |
| 1777929903 | 20° C | 41% | 1013.8 hPa | 0 mm | - | - | - |
| 1777929603 | 20° C | 43% | 1014 hPa | 0 mm | - | - | - |
| 1777929303 | 19.44° C | 42% | 1013.9 hPa | 0 mm | - | - | - |
| 1777929003 | 19.44° C | 43% | 1013.9 hPa | 0 mm | - | - | - |
| 1777928703 | 19.44° C | 43% | 1013.9 hPa | 0 mm | - | - | - |
| 1777928403 | 19.44° C | 43% | 1013.9 hPa | 0 mm | - | - | - |
| 1777928103 | 20° C | 42% | 1013.9 hPa | 0 mm | - | - | - |
| 1777927804 | 20° C | 42% | 1013.9 hPa | 0 mm | - | - | - |
| 1777927503 | 20° C | 42% | 1013.9 hPa | 0 mm | - | - | - |
| 1777927224 | 20° C | 42% | 1013.9 hPa | 0 mm | - | - | - |
| 1777926903 | 20.56° C | 42% | 1014 hPa | 0 mm | - | - | - |
| 1777926603 | 20.56° C | 42% | 1014.1 hPa | 0 mm | - | - | - |
| 1777926303 | 20.56° C | 41% | 1014.1 hPa | 0 mm | - | - | - |
| 1777926003 | 21.11° C | 39% | 1014 hPa | 0 mm | - | - | - |
* Rain latest hour (hover to see other rain measurements)
** Current wind speed in m/s (hover to see current wind gust speed)